CYUYCYPA

Guest
Details From CYUY - Rouyn Noranda
To CYPA - Prince Albert (glass Field)
Flight Number -
Tags Generated
Created
Modified
Stats Distance 1,057 nm / 1,957 km
Max Altitude 0 ft / 0 m
Waypoints 3
Social Downloads 0
Likes 0
Share VATSIM

Download

Looking for another format? Having issues loading an existing format? Contact us
Advertisement - Login to hide

Notes

Generated

Route

CYUY YPA CYPA

ID Type Via Altitude Latitude Longitude Leg Dist Tot Dist Heading (true) Name
O CYUY APT - 0 ft / 0 m 48.20105˚ -78.84886˚ - 0 nm - -
YPA VOR - 0 ft / 0 m 53.21667˚ -105.66667˚ 1056 nm 1056 nm 297° / 276° PRINCE ALBERT VOR-DME
O CYPA APT - 0 ft / 0 m 53.21772˚ -105.67373˚ 0 nm 1056 nm 284° / 284° Prince Albert (Glass Field)

Altitude Profile

Advertisement - Login to hide

Weather


0- 5 10 15 20 25 30 35+ Temperature / ° C

Clouds and Precipitation
Forecast for 2017-12-15 06:00 UTC. Updated 2 hours ago

Ground ~20,000 ft ~40,000 ft Winds

CYUY

Details ICAO CYUY (YUY)
Name ROUYN NORANDA
Region Canada
Timezone America/Montreal (UTC-5.0)
Stats Elevation 988 ft / 301 m (AMSL)
Location 48.205801° -78.835263°
Runways 1
Magnetic Variation 12.212° W

METAR

CYUY 150300Z 21002KT 15SM IC SKC M23/M26 A2982 RMK SLP135

Decode

TAF

TAF CYUY 142338Z 1500/1512 26008KT P6SM FEW020 TEMPO 1500/1506 BKN020 FM150600 VRB03KT P6SM BKN020 TEMPO 1506/1512 SCT020 RMK NXT FCST BY 150600Z

Decode

Departure Runways

ID Width Length Bearing (true) Bearing (mag) Surface Threshold Offset Overrun Length
08 150 ft / 46 m 7,470 ft / 2,277 m 62.31° 74.52° Asphalt 0 ft / 0 m 0 ft / 0 m
26 150 ft / 46 m 7,470 ft / 2,277 m 242.33° 254.54° Asphalt 0 ft / 0 m 0 ft / 0 m

CYPA

Details ICAO CYPA (YPA)
Name Prince Albert (Glass Field)
Region Canada
Timezone America/Regina (UTC-6.0)
Stats Elevation 1,405 ft / 428 m (AMSL)
Location 53.216123° -105.672921°
Runways 2
Magnetic Variation 9.746° E

METAR

CYPA 150300Z 19004KT 130V200 15SM OVC085 M03/M05 A2991 RMK AC8 SLP155

Decode

TAF

TAF CYPA 150038Z 1501/1513 VRB03KT P6SM SCT020 OVC080 TEMPO 1501/1504 3SM -SN OVC020 FM150400 12005KT 3SM -SN OVC015 TEMPO 1504/1513 1SM -SN VV008 RMK NXT FCST BY 150700Z

Decode

Destination Runways

ID Width Length Bearing (true) Bearing (mag) Surface Threshold Offset Overrun Length
08 151 ft / 46 m 5,105 ft / 1,556 m 89.99° 80.24° Asphalt 0 ft / 0 m 0 ft / 0 m
16 98 ft / 30 m 2,570 ft / 783 m 170.09° 160.34° Grass 0 ft / 0 m 0 ft / 0 m
26 151 ft / 46 m 5,105 ft / 1,556 m 270.01° 260.26° Asphalt 0 ft / 0 m 0 ft / 0 m
34 98 ft / 30 m 2,570 ft / 783 m 350.09° 340.34° Grass 0 ft / 0 m 0 ft / 0 m

Approach Navaids

Runway Type Ident Frequency Range Bearing (true) Bearing (mag) Slope Elevation
08 Localiser IPA 110.30 MHz 18 nm / 33 km 90.00° 80.25° - 1,388 ft / 423 m (AMSL)
08 Glidescope IPA 110.30 MHz 10 nm / 19 km 90.00° 80.25° 3.00° 1,391 ft / 424 m (AMSL)